createdAt,value
2022-09-10T00:03:04.033Z,11.07
2022-09-10T00:06:05.045Z,10.13
2022-09-10T00:09:07.018Z,8.40
2022-09-10T00:12:08.024Z,8.75
2022-09-10T00:15:09.029Z,7.40
2022-09-10T00:18:10.033Z,7.90
2022-09-10T00:21:12.035Z,7.25
2022-09-10T00:24:14.004Z,6.65
2022-09-10T00:27:15.029Z,7.55
2022-09-10T00:30:16.100Z,6.72
2022-09-10T00:33:17.027Z,7.03
2022-09-10T00:36:27.019Z,6.60
2022-09-10T00:39:31.048Z,6.45
2022-09-10T00:42:32.030Z,6.97
2022-09-10T00:45:39.054Z,7.55
2022-09-10T00:48:43.997Z,6.72
2022-09-10T00:51:48.068Z,6.93
2022-09-10T00:54:52.043Z,6.55
2022-09-10T00:57:54.059Z,7.00
2022-09-10T01:00:55.059Z,6.47
2022-09-10T01:03:58.006Z,6.95
2022-09-10T01:07:01.010Z,6.95
2022-09-10T01:10:03.077Z,6.80
2022-09-10T01:13:15.070Z,6.70
2022-09-10T01:16:42.027Z,6.22
2022-09-10T01:20:26.059Z,6.28
2022-09-10T01:24:14.065Z,7.22
2022-09-10T01:27:49.058Z,6.28
2022-09-10T01:30:57.074Z,6.00
2022-09-10T01:34:15.099Z,6.30
2022-09-10T01:37:22.081Z,6.40
2022-09-10T01:40:24.068Z,7.35
2022-09-10T01:43:29.076Z,6.75
2022-09-10T01:46:39.084Z,5.65
2022-09-10T01:49:53.101Z,6.45
2022-09-10T01:53:21.088Z,7.20
2022-09-10T01:56:37.090Z,7.57
2022-09-10T01:59:54.370Z,7.55
2022-09-10T02:03:20.100Z,8.52
2022-09-10T02:06:26.079Z,10.18
2022-09-10T02:09:29.104Z,10.30
2022-09-10T02:12:36.116Z,11.25
2022-09-10T02:16:10.129Z,13.40
2022-09-10T02:19:06.090Z,12.15
2022-09-10T02:22:09.071Z,11.63
2022-09-10T02:25:10.102Z,12.00
2022-09-10T02:28:11.058Z,10.77
2022-09-10T02:31:12.140Z,10.18
2022-09-10T02:34:13.056Z,10.32
2022-09-10T02:37:15.112Z,9.48
2022-09-10T02:40:17.058Z,9.20
2022-09-10T02:43:18.122Z,10.30
2022-09-10T02:46:20.132Z,9.88
2022-09-10T02:49:21.068Z,9.80
2022-09-10T02:52:22.117Z,8.93
2022-09-10T02:55:23.120Z,8.82
2022-09-10T02:58:24.131Z,7.35
2022-09-10T03:01:29.151Z,7.35
2022-09-10T03:04:32.130Z,6.57
2022-09-10T03:07:33.132Z,6.65
2022-09-10T03:10:34.136Z,7.32
2022-09-10T03:13:35.200Z,5.78
2022-09-10T03:16:36.153Z,6.03
2022-09-10T03:19:38.114Z,5.50
2022-09-10T03:22:39.099Z,5.45
2022-09-10T03:25:42.082Z,5.22
2022-09-10T03:28:44.132Z,5.32
2022-09-10T03:31:47.148Z,5.82
2022-09-10T03:34:49.107Z,6.25
2022-09-10T03:37:51.136Z,5.70
2022-09-10T03:40:52.145Z,6.10
2022-09-10T03:43:53.159Z,6.03
2022-09-10T03:46:55.152Z,6.68
2022-09-10T03:49:57.138Z,7.35
2022-09-10T03:52:58.434Z,6.50
2022-09-10T03:56:02.148Z,5.72
2022-09-10T03:59:03.139Z,6.22
2022-09-10T04:02:12.188Z,6.75
2022-09-10T04:05:14.139Z,6.45
2022-09-10T04:08:16.159Z,6.88
2022-09-10T04:11:18.154Z,7.78
2022-09-10T04:14:12.149Z,6.65
2022-09-10T04:17:14.151Z,7.28
2022-09-10T04:20:17.120Z,7.63
2022-09-10T04:23:20.165Z,7.63
2022-09-10T04:26:30.174Z,7.43
2022-09-10T04:29:32.166Z,8.20
2022-09-10T04:32:33.178Z,7.45
2022-09-10T04:35:34.167Z,8.68
2022-09-10T04:38:37.160Z,8.45
2022-09-10T04:41:40.175Z,7.43
2022-09-10T04:44:41.187Z,8.35
2022-09-10T04:47:42.168Z,7.68
2022-09-10T04:50:59.430Z,8.20
2022-09-10T04:54:07.148Z,7.03
2022-09-10T04:57:08.183Z,7.03
2022-09-10T05:00:09.283Z,6.18
2022-09-10T05:03:12.179Z,6.78
2022-09-10T05:06:13.157Z,5.45
2022-09-10T05:09:14.184Z,5.90
2022-09-10T05:12:15.173Z,6.20
2022-09-10T05:15:16.192Z,6.00
2022-09-10T05:18:18.211Z,5.47
2022-09-10T05:21:20.164Z,5.32
2022-09-10T05:24:22.219Z,6.45
2022-09-10T05:27:23.203Z,5.90
2022-09-10T05:30:24.188Z,6.05
2022-09-10T05:33:25.273Z,5.18
2022-09-10T05:36:27.210Z,4.95
2022-09-10T05:39:28.166Z,4.50
2022-09-10T05:42:29.204Z,5.30
2022-09-10T05:45:30.358Z,5.10
2022-09-10T05:48:32.230Z,5.80
2022-09-10T05:51:29.208Z,5.75
2022-09-10T05:54:31.236Z,5.47
2022-09-10T05:57:32.226Z,5.13
2022-09-10T06:00:33.226Z,4.78
2022-09-10T06:03:35.240Z,4.68
2022-09-10T06:06:36.223Z,5.32
2022-09-10T06:09:39.208Z,4.75
2022-09-10T06:13:02.187Z,5.38
2022-09-10T06:16:03.310Z,4.22
2022-09-10T06:19:05.207Z,4.05
2022-09-10T06:22:06.192Z,3.97
2022-09-10T06:25:09.196Z,4.03
2022-09-10T06:28:10.234Z,2.90
2022-09-10T06:31:12.271Z,2.75
2022-09-10T06:34:13.199Z,2.83
2022-09-10T06:37:14.246Z,3.10
2022-09-10T06:40:08.252Z,3.30
2022-09-10T06:43:10.268Z,2.53
2022-09-10T06:47:19.648Z,2.55
2022-09-10T06:50:02.256Z,3.10
2022-09-10T06:53:05.211Z,2.88
2022-09-10T06:56:07.294Z,2.78
2022-09-10T06:59:08.248Z,2.75
2022-09-10T07:02:12.296Z,3.10
2022-09-10T07:05:13.255Z,4.10
2022-09-10T07:08:15.284Z,2.65
2022-09-10T07:11:24.264Z,2.70
2022-09-10T07:14:27.278Z,2.67
2022-09-10T07:17:32.082Z,2.83
2022-09-10T07:20:35.258Z,3.05
2022-09-10T07:23:36.241Z,3.13
2022-09-10T07:26:38.232Z,2.80
2022-09-10T07:29:39.292Z,2.83
2022-09-10T07:32:47.223Z,2.65
2022-09-10T07:35:52.240Z,2.55
2022-09-10T07:38:56.280Z,2.50
2022-09-10T07:42:00.297Z,2.47
2022-09-10T07:45:03.243Z,2.78
2022-09-10T07:48:04.291Z,3.05
2022-09-10T07:51:05.279Z,4.65
2022-09-10T07:54:08.254Z,2.75
2022-09-10T07:57:06.291Z,3.05
2022-09-10T08:00:07.399Z,2.20
2022-09-10T08:03:16.311Z,2.83
2022-09-10T08:06:18.295Z,2.58
2022-09-10T08:09:21.315Z,2.38
2022-09-10T08:12:24.361Z,2.38
2022-09-10T08:15:25.311Z,2.25
2022-09-10T08:18:28.263Z,2.25
2022-09-10T08:21:32.311Z,2.40
2022-09-10T08:24:33.292Z,3.10
2022-09-10T08:27:34.335Z,2.03
2022-09-10T08:30:35.280Z,1.98
2022-09-10T08:33:36.528Z,2.35
2022-09-10T08:36:37.313Z,2.10
2022-09-10T08:39:38.353Z,1.30
2022-09-10T08:42:54.324Z,1.90
2022-09-10T08:46:05.352Z,2.08
2022-09-10T08:49:18.315Z,1.58
2022-09-10T08:52:46.325Z,2.22
2022-09-10T08:55:54.323Z,1.63
2022-09-10T08:59:11.331Z,3.22
2022-09-10T09:02:31.632Z,6.72
2022-09-10T09:05:38.383Z,7.30
2022-09-10T09:08:49.355Z,4.70
2022-09-10T09:12:12.324Z,2.10
2022-09-10T09:15:44.332Z,1.67
2022-09-10T09:19:32.364Z,3.33
2022-09-10T09:22:52.335Z,1.60
2022-09-10T09:26:03.354Z,1.73
2022-09-10T09:29:19.342Z,1.90
2022-09-10T09:32:20.319Z,1.70
2022-09-10T09:35:46.376Z,1.60
2022-09-10T09:38:53.376Z,1.73
2022-09-10T09:42:38.349Z,1.30
2022-09-10T09:46:00.428Z,1.10
2022-09-10T09:49:02.341Z,1.30
2022-09-10T09:52:03.365Z,1.70
2022-09-10T09:55:15.187Z,1.20
2022-09-10T09:58:34.379Z,0.93
2022-09-10T10:01:40.456Z,1.58
2022-09-10T10:04:43.378Z,1.00
2022-09-10T10:07:48.388Z,0.90
2022-09-10T10:10:49.402Z,1.05
2022-09-10T10:13:59.351Z,1.00
2022-09-10T10:17:02.401Z,1.00
2022-09-10T10:20:21.394Z,0.90
2022-09-10T10:23:47.390Z,0.77
2022-09-10T10:26:50.382Z,0.70
2022-09-10T10:29:52.360Z,1.00
2022-09-10T10:33:12.402Z,0.93
2022-09-10T10:36:19.555Z,1.00
2022-09-10T10:39:42.445Z,0.95
2022-09-10T10:42:48.372Z,1.52
2022-09-10T10:45:49.399Z,1.35
2022-09-10T10:49:09.392Z,1.40
2022-09-10T10:52:32.416Z,1.33
2022-09-10T10:55:38.378Z,0.98
2022-09-10T10:58:45.439Z,0.85
2022-09-10T11:01:55.483Z,0.93
2022-09-10T11:05:00.430Z,1.35
2022-09-10T11:08:03.423Z,1.13
2022-09-10T11:11:13.424Z,1.40
2022-09-10T11:14:29.431Z,0.90
2022-09-10T11:17:45.587Z,1.05
2022-09-10T11:20:51.426Z,1.27
2022-09-10T11:24:06.431Z,0.85
2022-09-10T11:27:22.414Z,1.48
2022-09-10T11:30:29.446Z,1.30
2022-09-10T11:33:55.425Z,0.90
2022-09-10T11:37:09.391Z,0.90
2022-09-10T11:40:16.531Z,1.13
2022-09-10T11:43:23.446Z,1.80
2022-09-10T11:46:34.504Z,1.10
2022-09-10T11:49:45.497Z,0.98
2022-09-10T11:52:47.448Z,0.77
2022-09-10T11:56:22.455Z,1.00
2022-09-10T11:59:41.440Z,0.95
2022-09-10T12:02:59.468Z,0.95
2022-09-10T12:06:09.455Z,0.60
2022-09-10T12:09:23.486Z,0.95
2022-09-10T12:12:33.447Z,1.70
2022-09-10T12:15:44.522Z,0.82
2022-09-10T12:18:55.465Z,1.00
2022-09-10T12:22:04.488Z,0.95
2022-09-10T12:25:33.591Z,1.00
2022-09-10T12:29:06.483Z,0.80
2022-09-10T12:32:18.464Z,0.70
2022-09-10T12:35:44.478Z,1.00
2022-09-10T12:39:07.427Z,1.02
2022-09-10T12:42:16.489Z,1.10
2022-09-10T12:45:17.443Z,1.15
2022-09-10T12:48:27.133Z,1.60
2022-09-10T12:51:39.488Z,0.80
2022-09-10T12:54:55.492Z,0.95
2022-09-10T12:58:18.438Z,0.70
2022-09-10T13:01:38.562Z,1.10
2022-09-10T13:04:53.489Z,0.82
2022-09-10T13:07:58.493Z,0.93
2022-09-10T13:11:37.482Z,0.80
2022-09-10T13:14:52.521Z,0.50
2022-09-10T13:18:13.591Z,1.10
2022-09-10T13:21:37.513Z,0.77
2022-09-10T13:24:47.494Z,1.00
2022-09-10T13:27:51.523Z,0.80
2022-09-10T13:30:52.522Z,0.82
2022-09-10T13:34:05.485Z,0.70
2022-09-10T13:37:18.515Z,0.70
2022-09-10T13:40:41.562Z,0.80
2022-09-10T13:44:01.345Z,0.80
2022-09-10T13:47:08.528Z,1.10
2022-09-10T13:50:14.546Z,0.90
2022-09-10T13:53:19.561Z,0.93
2022-09-10T13:56:38.005Z,0.80
2022-09-10T13:59:42.909Z,0.93
2022-09-10T14:03:16.496Z,0.88
2022-09-10T14:06:33.899Z,0.65
2022-09-10T14:09:35.898Z,1.00
2022-09-10T14:12:41.022Z,1.05
2022-09-10T14:15:48.876Z,1.35
2022-09-10T14:18:58.927Z,0.98
2022-09-10T14:22:09.970Z,1.20
2022-09-10T14:25:15.885Z,1.00
2022-09-10T14:28:34.868Z,1.20
2022-09-10T14:31:40.946Z,0.80
2022-09-10T14:34:47.865Z,0.95
2022-09-10T14:37:51.917Z,1.40
2022-09-10T14:40:52.890Z,0.93
2022-09-10T14:43:53.924Z,0.90
2022-09-10T14:47:09.888Z,0.93
2022-09-10T14:50:41.920Z,1.00
2022-09-10T14:53:35.917Z,0.75
2022-09-10T14:56:44.936Z,1.17
2022-09-10T14:59:46.880Z,1.00
2022-09-10T15:02:47.927Z,0.93
2022-09-10T15:05:48.947Z,1.88
2022-09-10T15:08:49.898Z,1.17
2022-09-10T15:11:53.971Z,0.85
2022-09-10T15:14:54.932Z,1.02
2022-09-10T15:17:55.964Z,1.20
2022-09-10T15:20:56.953Z,1.20
2022-09-10T15:23:57.967Z,0.80
2022-09-10T15:27:00.115Z,1.13
2022-09-10T15:30:00.907Z,0.70
2022-09-10T15:33:01.906Z,1.13
2022-09-10T15:36:03.121Z,0.73
2022-09-10T15:39:05.903Z,1.40
2022-09-10T15:42:06.911Z,1.10
2022-09-10T15:45:07.931Z,1.55
2022-09-10T15:48:08.969Z,1.20
2022-09-10T15:51:12.919Z,1.10
2022-09-10T15:54:13.988Z,1.13
2022-09-10T15:57:14.955Z,0.90
2022-09-10T16:00:18.930Z,0.90
2022-09-10T16:03:20.042Z,1.30
2022-09-10T16:06:21.947Z,0.82
2022-09-10T16:09:24.994Z,1.10
2022-09-10T16:12:26.009Z,0.93
2022-09-10T16:15:26.962Z,0.70
2022-09-10T16:18:27.991Z,1.13
2022-09-10T16:21:32.940Z,1.10
2022-09-10T16:24:27.000Z,0.90
2022-09-10T16:27:27.987Z,0.90
2022-09-10T16:30:29.004Z,0.82
2022-09-10T16:33:29.990Z,0.80
2022-09-10T16:36:31.965Z,1.10
2022-09-10T16:39:34.055Z,1.55
2022-09-10T16:42:36.007Z,1.23
2022-09-10T16:45:38.001Z,1.00
2022-09-10T16:48:39.029Z,1.10
2022-09-10T16:51:41.004Z,1.00
2022-09-10T16:54:42.084Z,1.05
2022-09-10T16:57:42.998Z,1.42
2022-09-10T17:00:43.963Z,1.52
2022-09-10T17:03:45.010Z,1.25
2022-09-10T17:06:46.007Z,1.10
2022-09-10T17:09:46.984Z,1.20
2022-09-10T17:12:48.975Z,1.40
2022-09-10T17:15:51.047Z,1.25
2022-09-10T17:18:51.976Z,1.10
2022-09-10T17:21:58.039Z,1.17
2022-09-10T17:25:00.007Z,1.00
2022-09-10T17:28:01.036Z,1.23
2022-09-10T17:31:03.065Z,1.10
2022-09-10T17:34:05.107Z,1.10
2022-09-10T17:37:06.047Z,0.85
2022-09-10T17:40:07.043Z,1.10
2022-09-10T17:43:08.041Z,0.80
2022-09-10T17:46:10.015Z,0.82
2022-09-10T17:49:12.056Z,0.70
2022-09-10T17:52:12.999Z,0.90
2022-09-10T17:55:14.070Z,0.70
2022-09-10T17:58:15.003Z,1.38
2022-09-10T18:01:22.656Z,1.65
2022-09-10T18:04:25.168Z,1.00
2022-09-10T18:07:26.243Z,1.02
2022-09-10T18:10:27.021Z,0.95
2022-09-10T18:13:28.028Z,1.25
2022-09-10T18:16:24.028Z,1.10
2022-09-10T18:19:28.027Z,0.85
2022-09-10T18:22:29.082Z,0.90
2022-09-10T18:25:30.069Z,1.02
2022-09-10T18:28:31.245Z,0.90
2022-09-10T18:31:32.091Z,1.00
2022-09-10T18:34:36.107Z,1.20
2022-09-10T18:37:37.188Z,1.00
2022-09-10T18:40:38.083Z,0.95
2022-09-10T18:43:47.254Z,1.67
2022-09-10T18:46:49.100Z,1.50
2022-09-10T18:50:02.891Z,1.65
2022-09-10T18:52:30.701Z,1.40
2022-09-10T18:54:58.336Z,2.95
2022-09-10T18:57:26.149Z,1.70
2022-09-10T18:59:55.151Z,1.83
2022-09-10T19:02:22.790Z,1.92
2022-09-10T19:05:10.111Z,1.75
2022-09-10T19:07:38.284Z,1.60
2022-09-10T19:10:07.254Z,2.20
2022-09-10T19:12:35.104Z,2.38
2022-09-10T19:15:02.730Z,2.17
2022-09-10T19:17:30.389Z,2.17
2022-09-10T19:19:58.142Z,1.85
2022-09-10T19:22:25.702Z,2.03
2022-09-10T19:24:55.204Z,2.30
2022-09-10T19:27:24.286Z,2.25
2022-09-10T19:32:20.260Z,2.95
2022-09-10T19:34:51.775Z,2.70
2022-09-10T19:37:20.330Z,2.72
2022-09-10T19:39:48.034Z,2.50
2022-09-10T19:42:16.393Z,2.88
2022-09-10T19:44:43.900Z,2.25
2022-09-10T19:47:11.781Z,2.67
2022-09-10T19:49:39.287Z,2.15
2022-09-10T19:52:06.806Z,3.00
2022-09-10T19:54:35.137Z,2.88
2022-09-10T19:57:02.881Z,3.00
2022-09-10T19:59:31.574Z,2.67
2022-09-10T20:01:59.226Z,3.10
2022-09-10T20:04:28.220Z,3.20
2022-09-10T20:09:24.367Z,2.55
2022-09-10T20:11:53.687Z,3.55
2022-09-10T20:14:21.206Z,2.95
2022-09-10T20:16:48.859Z,3.30
2022-09-10T20:19:18.499Z,3.50
2022-09-10T20:21:47.878Z,3.53
2022-09-10T20:24:19.935Z,3.17
2022-09-10T20:26:49.320Z,2.60
2022-09-10T20:29:18.495Z,2.60
2022-09-10T20:31:47.070Z,2.97
2022-09-10T20:34:25.498Z,3.47
2022-09-10T20:36:53.338Z,3.60
2022-09-10T20:39:26.920Z,3.40
2022-09-10T20:41:54.503Z,3.60
2022-09-10T20:44:23.021Z,3.60
2022-09-10T20:46:50.571Z,3.08
2022-09-10T20:49:18.416Z,3.80
2022-09-10T20:51:46.009Z,4.30
2022-09-10T20:54:17.002Z,3.35
2022-09-10T20:56:45.555Z,4.55
2022-09-10T20:59:16.845Z,3.80
2022-09-10T21:01:50.849Z,4.57
2022-09-10T21:04:23.057Z,4.40
2022-09-10T21:06:50.667Z,4.28
2022-09-10T21:09:18.342Z,3.08
2022-09-10T21:11:46.167Z,3.30
2022-09-10T21:14:13.801Z,3.05
2022-09-10T21:16:43.189Z,3.03
2022-09-10T21:19:16.151Z,2.30
2022-09-10T21:21:45.423Z,2.95
2022-09-10T21:24:15.392Z,4.65
2022-09-10T21:26:43.603Z,4.63
2022-09-10T21:29:18.036Z,5.35
2022-09-10T21:31:46.634Z,4.40
2022-09-10T21:34:14.906Z,4.00
2022-09-10T21:36:44.018Z,4.03
2022-09-10T21:39:16.453Z,4.30
2022-09-10T21:41:50.272Z,4.07
2022-09-10T21:44:20.260Z,3.63
2022-09-10T21:46:54.888Z,3.60
2022-09-10T21:49:24.671Z,3.42
2022-09-10T21:51:52.364Z,3.00
2022-09-10T21:54:22.009Z,4.15
2022-09-10T21:56:51.843Z,4.97
2022-09-10T21:59:21.595Z,4.97
2022-09-10T22:01:50.349Z,6.00
2022-09-10T22:04:22.383Z,5.38
2022-09-10T22:06:52.010Z,6.53
2022-09-10T22:09:20.667Z,5.68
2022-09-10T22:11:51.240Z,6.03
2022-09-10T22:14:22.275Z,5.97
2022-09-10T22:16:52.390Z,5.70
2022-09-10T22:19:23.752Z,5.50
2022-09-10T22:21:54.407Z,5.95
2022-09-10T22:24:23.454Z,5.13
2022-09-10T22:26:52.029Z,6.05
2022-09-10T22:29:20.506Z,6.07
2022-09-10T22:31:49.583Z,5.20
2022-09-10T22:34:18.386Z,5.43
2022-09-10T22:36:48.253Z,5.32
2022-09-10T22:39:22.506Z,5.80
2022-09-10T22:41:51.323Z,6.63
2022-09-10T22:44:20.001Z,5.65
2022-09-10T22:46:48.070Z,7.30
2022-09-10T22:49:16.155Z,7.82
2022-09-10T22:51:44.125Z,6.40
2022-09-10T22:54:12.810Z,6.15
2022-09-10T22:56:40.586Z,6.63
2022-09-10T22:59:11.281Z,7.25
2022-09-10T23:01:39.590Z,7.45
2022-09-10T23:04:09.418Z,9.07
2022-09-10T23:06:38.334Z,7.65
2022-09-10T23:09:12.583Z,6.20
2022-09-10T23:11:41.841Z,6.00
2022-09-10T23:14:13.082Z,8.30
2022-09-10T23:16:43.030Z,9.30
2022-09-10T23:19:15.292Z,7.28
2022-09-10T23:21:45.671Z,9.63
2022-09-10T23:24:15.813Z,6.28
2022-09-10T23:26:44.318Z,7.40
2022-09-10T23:29:12.789Z,9.85
2022-09-10T23:31:41.038Z,7.32
2022-09-10T23:34:14.175Z,7.27
2022-09-10T23:36:43.919Z,9.35
2022-09-10T23:39:20.230Z,10.30
2022-09-10T23:41:52.863Z,13.68
2022-09-10T23:44:21.034Z,11.18
2022-09-10T23:46:49.021Z,10.77
2022-09-10T23:49:16.643Z,10.95
2022-09-10T23:51:44.422Z,10.23
2022-09-10T23:54:12.100Z,9.73
2022-09-10T23:56:40.170Z,10.15
2022-09-10T23:59:08.456Z,7.22
